createdAt,value
2022-12-08T00:01:45.816Z,5.70
2022-12-08T00:04:14.193Z,6.20
2022-12-08T00:07:02.431Z,5.60
2022-12-08T00:09:39.485Z,5.00
2022-12-08T00:12:13.336Z,5.40
2022-12-08T00:14:43.811Z,5.40
2022-12-08T00:17:14.588Z,4.80
2022-12-08T00:19:43.593Z,5.60
2022-12-08T00:22:12.933Z,5.90
2022-12-08T00:24:44.210Z,5.50
2022-12-08T00:27:15.312Z,6.00
2022-12-08T00:29:44.980Z,5.60
2022-12-08T00:32:13.596Z,5.00
2022-12-08T00:34:41.908Z,6.60
2022-12-08T00:37:10.261Z,6.80
2022-12-08T00:39:38.583Z,12.60
2022-12-08T00:42:12.881Z,12.80
2022-12-08T00:44:42.775Z,11.10
2022-12-08T00:47:12.675Z,13.00
2022-12-08T00:49:41.414Z,13.10
2022-12-08T00:52:10.003Z,11.40
2022-12-08T00:54:38.348Z,10.00
2022-12-08T00:57:06.768Z,9.50
2022-12-08T00:59:35.094Z,9.60
2022-12-08T01:02:03.506Z,9.20
2022-12-08T01:04:31.914Z,9.10
2022-12-08T01:07:00.234Z,9.10
2022-12-08T01:09:28.528Z,8.00
2022-12-08T01:11:56.777Z,7.50
2022-12-08T01:14:25.058Z,7.00
2022-12-08T01:16:53.608Z,6.30
2022-12-08T01:19:21.919Z,5.20
2022-12-08T01:21:50.232Z,4.70
2022-12-08T01:24:21.016Z,4.20
2022-12-08T01:26:51.141Z,4.20
2022-12-08T01:29:19.532Z,3.30
2022-12-08T01:31:47.831Z,3.60
2022-12-08T01:34:16.154Z,4.00
2022-12-08T01:36:45.037Z,4.10
2022-12-08T01:39:18.529Z,5.20
2022-12-08T01:41:47.926Z,5.60
2022-12-08T01:44:16.131Z,7.10
2022-12-08T01:46:48.705Z,7.00
2022-12-08T01:49:31.032Z,6.80
2022-12-08T01:52:07.767Z,7.00
2022-12-08T01:54:49.294Z,8.40
2022-12-08T01:57:30.712Z,7.30
2022-12-08T02:00:10.160Z,9.00
2022-12-08T02:03:01.305Z,10.00
2022-12-08T02:08:07.020Z,11.00
2022-12-08T02:10:39.062Z,11.20
2022-12-08T02:13:11.391Z,10.70
2022-12-08T02:16:10.469Z,9.90
2022-12-08T02:18:57.670Z,8.90
2022-12-08T02:22:04.330Z,11.60
2022-12-08T02:24:51.927Z,9.30
2022-12-08T02:27:36.051Z,9.20
2022-12-08T02:30:10.746Z,8.00
2022-12-08T02:33:12.924Z,7.50
2022-12-08T02:35:56.317Z,6.40
2022-12-08T02:38:27.348Z,7.10
2022-12-08T02:41:31.051Z,6.20
2022-12-08T02:44:21.743Z,6.60
2022-12-08T02:46:55.898Z,5.10
2022-12-08T02:49:34.802Z,5.00
2022-12-08T02:52:13.200Z,5.70
2022-12-08T02:54:49.402Z,5.90
2022-12-08T02:57:47.695Z,6.90
2022-12-08T03:00:19.146Z,7.40
2022-12-08T03:03:19.777Z,7.30
2022-12-08T03:06:09.516Z,7.20
2022-12-08T03:08:57.119Z,7.50
2022-12-08T03:11:34.723Z,8.10
2022-12-08T03:14:07.450Z,8.40
2022-12-08T03:16:40.290Z,8.60
2022-12-08T03:19:18.750Z,8.40
2022-12-08T03:21:51.168Z,10.20
2022-12-08T03:24:23.077Z,10.20
2022-12-08T03:27:00.121Z,10.70
2022-12-08T03:29:29.404Z,11.10
2022-12-08T03:32:27.896Z,10.30
2022-12-08T03:35:00.878Z,8.30
2022-12-08T03:37:29.243Z,7.70
2022-12-08T03:39:57.801Z,5.80
2022-12-08T03:42:26.109Z,8.80
2022-12-08T03:44:54.447Z,8.80
2022-12-08T03:47:22.655Z,9.20
2022-12-08T03:49:50.887Z,9.30
2022-12-08T03:52:19.092Z,8.10
2022-12-08T03:54:47.301Z,6.50
2022-12-08T03:57:15.590Z,5.80
2022-12-08T03:59:43.923Z,6.80
2022-12-08T04:02:12.260Z,6.10
2022-12-08T04:04:40.633Z,6.30
2022-12-08T04:07:08.958Z,6.50
2022-12-08T04:09:37.234Z,7.00
2022-12-08T04:12:05.672Z,8.20
2022-12-08T04:14:33.921Z,8.30
2022-12-08T04:17:02.176Z,8.20
2022-12-08T04:19:30.491Z,8.00
2022-12-08T04:21:58.734Z,8.70
2022-12-08T04:24:27.060Z,9.00
2022-12-08T04:26:55.234Z,10.40
2022-12-08T04:29:23.506Z,8.90
2022-12-08T04:31:51.790Z,9.70
2022-12-08T04:34:20.086Z,9.50
2022-12-08T04:36:48.317Z,8.80
2022-12-08T04:39:17.081Z,9.50
2022-12-08T04:41:45.385Z,10.20
2022-12-08T04:44:13.621Z,10.10
2022-12-08T04:46:43.616Z,9.00
2022-12-08T04:49:12.125Z,9.80
2022-12-08T04:51:40.450Z,9.20
2022-12-08T04:54:08.678Z,10.00
2022-12-08T04:56:37.373Z,9.10
2022-12-08T04:59:05.781Z,9.20
2022-12-08T05:01:34.154Z,10.10
2022-12-08T05:04:02.878Z,9.70
2022-12-08T05:06:31.048Z,9.10
2022-12-08T05:08:59.319Z,9.20
2022-12-08T05:11:27.524Z,9.30
2022-12-08T05:13:55.688Z,8.70
2022-12-08T05:16:24.015Z,9.10
2022-12-08T05:18:52.321Z,8.60
2022-12-08T05:21:20.671Z,8.80
2022-12-08T05:23:48.885Z,8.50
2022-12-08T05:26:17.064Z,9.50
2022-12-08T05:28:45.280Z,9.90
2022-12-08T05:31:15.743Z,8.40
2022-12-08T05:33:45.600Z,7.90
2022-12-08T05:36:15.714Z,6.60
2022-12-08T05:38:44.474Z,6.10
2022-12-08T05:41:20.695Z,6.30
2022-12-08T05:43:49.400Z,6.60
2022-12-08T05:46:17.754Z,7.50
2022-12-08T05:48:46.035Z,8.10
2022-12-08T05:51:21.029Z,8.80
2022-12-08T05:53:51.163Z,8.80
2022-12-08T05:56:20.529Z,8.20
2022-12-08T05:58:49.146Z,9.00
2022-12-08T06:01:20.373Z,9.10
2022-12-08T06:03:48.685Z,8.20
2022-12-08T06:06:17.168Z,8.50
2022-12-08T06:08:45.546Z,8.40
2022-12-08T06:11:22.493Z,8.10
2022-12-08T06:13:51.549Z,8.90
2022-12-08T06:16:20.403Z,9.10
2022-12-08T06:18:48.935Z,10.40
2022-12-08T06:21:18.430Z,8.50
2022-12-08T06:23:51.827Z,9.70
2022-12-08T06:26:20.803Z,9.90
2022-12-08T06:28:50.567Z,10.20
2022-12-08T06:31:24.490Z,10.50
2022-12-08T06:33:53.730Z,10.00
2022-12-08T06:36:24.888Z,11.10
2022-12-08T06:38:53.406Z,11.10
2022-12-08T06:41:22.158Z,13.10
2022-12-08T06:43:50.793Z,13.40
2022-12-08T06:46:20.309Z,11.60
2022-12-08T06:48:50.695Z,13.10
2022-12-08T06:51:22.185Z,12.90
2022-12-08T06:53:50.623Z,11.30
2022-12-08T06:56:20.289Z,11.40
2022-12-08T06:58:52.311Z,11.90
2022-12-08T07:01:21.343Z,10.30
2022-12-08T07:03:50.071Z,11.10
2022-12-08T07:06:24.447Z,10.90
2022-12-08T07:08:52.875Z,11.40
2022-12-08T07:11:22.235Z,11.00
2022-12-08T07:13:51.274Z,10.00
2022-12-08T07:16:19.975Z,10.30
2022-12-08T07:18:48.339Z,11.10
2022-12-08T07:21:17.544Z,12.40
2022-12-08T07:23:49.283Z,10.80
2022-12-08T07:26:19.796Z,11.20
2022-12-08T07:28:48.126Z,11.60
2022-12-08T07:31:21.810Z,9.70
2022-12-08T07:33:50.852Z,12.10
2022-12-08T07:36:19.172Z,12.70
2022-12-08T07:38:48.505Z,13.50
2022-12-08T07:41:19.376Z,13.10
2022-12-08T07:46:18.445Z,13.60
2022-12-08T07:48:47.258Z,12.10
2022-12-08T07:51:16.730Z,14.20
2022-12-08T07:53:51.835Z,16.60
2022-12-08T07:56:22.786Z,14.40
2022-12-08T07:58:51.492Z,17.30
2022-12-08T08:01:26.350Z,17.40
2022-12-08T08:03:56.622Z,17.30
2022-12-08T08:06:24.952Z,20.80
2022-12-08T08:08:53.428Z,20.10
2022-12-08T08:11:22.079Z,21.60
2022-12-08T08:13:51.393Z,21.00
2022-12-08T08:16:20.528Z,20.80
2022-12-08T08:18:50.365Z,19.00
2022-12-08T08:24:08.615Z,15.80
2022-12-08T08:26:37.671Z,19.30
2022-12-08T08:29:06.032Z,17.90
2022-12-08T08:31:34.487Z,16.00
2022-12-08T08:34:06.391Z,21.90
2022-12-08T08:36:35.491Z,18.50
2022-12-08T08:39:04.749Z,20.50
2022-12-08T08:41:33.237Z,19.80
2022-12-08T08:44:01.651Z,21.40
2022-12-08T08:46:29.990Z,22.50
2022-12-08T08:48:58.421Z,21.60
2022-12-08T08:51:26.662Z,23.80
2022-12-08T08:53:54.955Z,23.00
2022-12-08T08:56:23.249Z,20.90
2022-12-08T08:58:53.176Z,20.10
2022-12-08T09:01:25.149Z,23.70
2022-12-08T09:03:54.213Z,23.10
2022-12-08T09:06:23.766Z,24.60
2022-12-08T09:08:52.259Z,24.20
2022-12-08T09:11:20.808Z,24.70
2022-12-08T09:13:50.446Z,29.60
2022-12-08T09:16:19.985Z,30.50
2022-12-08T09:18:49.764Z,25.60
2022-12-08T09:21:23.068Z,29.00
2022-12-08T09:23:54.721Z,25.70
2022-12-08T09:26:24.268Z,30.60
2022-12-08T09:28:54.974Z,28.60
2022-12-08T09:31:24.515Z,27.00
2022-12-08T09:33:53.228Z,31.20
2022-12-08T09:36:21.901Z,29.50
2022-12-08T09:38:51.256Z,23.10
2022-12-08T09:41:29.426Z,20.60
2022-12-08T09:44:32.969Z,31.70
2022-12-08T09:47:04.104Z,30.30
2022-12-08T09:49:43.345Z,29.60
2022-12-08T09:52:55.095Z,34.00
2022-12-08T09:55:36.701Z,32.70
2022-12-08T09:58:11.515Z,32.80
2022-12-08T10:00:40.116Z,28.90
2022-12-08T10:03:16.643Z,32.00
2022-12-08T10:05:52.145Z,36.50
2022-12-08T10:08:28.636Z,33.60
2022-12-08T10:11:10.983Z,29.20
2022-12-08T10:13:50.353Z,35.20
2022-12-08T10:16:34.469Z,32.10
2022-12-08T10:19:18.205Z,27.00
2022-12-08T10:21:46.725Z,26.60
2022-12-08T10:24:29.931Z,30.20
2022-12-08T10:26:58.329Z,33.00
2022-12-08T10:29:26.580Z,33.40
2022-12-08T10:31:59.040Z,30.50
2022-12-08T10:34:27.428Z,26.00
2022-12-08T10:36:57.968Z,27.50
2022-12-08T10:39:39.857Z,25.90
2022-12-08T10:42:18.254Z,25.00
2022-12-08T10:45:21.713Z,25.10
2022-12-08T10:48:21.395Z,24.50
2022-12-08T10:50:52.577Z,22.20
2022-12-08T10:53:25.219Z,21.50
2022-12-08T10:56:02.603Z,23.80
2022-12-08T10:58:36.768Z,24.20
2022-12-08T11:01:11.280Z,26.80
2022-12-08T11:03:51.900Z,24.20
2022-12-08T11:06:23.879Z,24.10
2022-12-08T11:09:04.806Z,24.70
2022-12-08T11:14:32.341Z,22.10
2022-12-08T11:17:08.299Z,23.60
2022-12-08T11:19:42.088Z,22.00
2022-12-08T11:22:32.653Z,24.40
2022-12-08T11:25:08.605Z,23.10
2022-12-08T11:27:45.752Z,24.90
2022-12-08T11:30:22.923Z,25.40
2022-12-08T11:32:56.345Z,26.20
2022-12-08T11:35:29.063Z,24.80
2022-12-08T11:38:20.155Z,25.30
2022-12-08T11:41:04.598Z,23.00
2022-12-08T11:43:44.587Z,27.20
2022-12-08T11:46:20.712Z,21.60
2022-12-08T11:48:54.241Z,21.00
2022-12-08T11:51:33.662Z,22.00
2022-12-08T11:54:30.908Z,21.00
2022-12-08T11:57:06.004Z,22.90
2022-12-08T11:59:46.244Z,17.90
2022-12-08T12:02:27.574Z,19.80
2022-12-08T12:05:10.578Z,19.20
2022-12-08T12:08:03.919Z,18.90
2022-12-08T12:11:39.874Z,18.80
2022-12-08T12:14:16.865Z,19.40
2022-12-08T12:16:57.095Z,19.70
2022-12-08T12:19:27.908Z,21.40
2022-12-08T12:22:13.015Z,24.10
2022-12-08T12:24:45.377Z,23.40
2022-12-08T12:27:13.608Z,21.30
2022-12-08T12:30:03.083Z,22.30
2022-12-08T12:32:48.985Z,20.90
2022-12-08T12:35:27.736Z,20.20
2022-12-08T12:38:00.944Z,19.80
2022-12-08T12:40:39.823Z,19.90
2022-12-08T12:43:11.090Z,18.00
2022-12-08T12:45:44.033Z,20.00
2022-12-08T12:48:25.021Z,18.40
2022-12-08T12:53:24.407Z,13.40
2022-12-08T12:55:59.059Z,19.70
2022-12-08T12:58:30.019Z,21.20
2022-12-08T13:03:40.381Z,17.40
2022-12-08T13:06:14.852Z,19.50
2022-12-08T13:08:52.730Z,19.20
2022-12-08T13:11:22.578Z,18.80
2022-12-08T13:14:01.340Z,20.90
2022-12-08T13:16:36.246Z,20.90
2022-12-08T13:19:12.456Z,19.40
2022-12-08T13:21:41.247Z,21.60
2022-12-08T13:24:13.100Z,22.60
2022-12-08T13:26:45.483Z,22.90
2022-12-08T13:29:25.024Z,22.10
2022-12-08T13:32:01.077Z,21.40
2022-12-08T13:34:52.093Z,21.40
2022-12-08T13:40:06.008Z,19.60
2022-12-08T13:42:43.462Z,19.00
2022-12-08T13:45:25.528Z,18.80
2022-12-08T13:48:59.062Z,18.80
2022-12-08T13:57:29.812Z,16.70
2022-12-08T14:00:04.788Z,14.80
2022-12-08T14:02:48.370Z,15.60
2022-12-08T14:05:23.446Z,16.80
2022-12-08T14:07:56.961Z,17.10
2022-12-08T14:10:29.030Z,16.50
2022-12-08T14:13:00.939Z,15.10
2022-12-08T14:15:35.572Z,15.20
2022-12-08T14:18:07.505Z,15.90
2022-12-08T14:20:57.769Z,16.00
2022-12-08T14:23:24.546Z,15.80
2022-12-08T14:25:52.934Z,15.70
2022-12-08T14:28:21.979Z,16.60
2022-12-08T14:30:51.525Z,16.60
2022-12-08T14:33:20.035Z,17.80
2022-12-08T14:35:55.075Z,18.00
2022-12-08T14:38:25.608Z,12.30
2022-12-08T14:41:06.162Z,18.80
2022-12-08T14:43:34.897Z,19.30
2022-12-08T14:46:06.684Z,19.70
2022-12-08T14:48:34.983Z,15.60
2022-12-08T14:51:18.962Z,17.80
2022-12-08T14:54:07.946Z,17.90
2022-12-08T14:56:36.297Z,19.10
2022-12-08T14:59:10.717Z,20.50
2022-12-08T15:01:40.081Z,21.40
2022-12-08T15:04:17.329Z,21.10
2022-12-08T15:06:52.257Z,19.70
2022-12-08T15:09:41.152Z,18.80
2022-12-08T15:12:12.465Z,16.70
2022-12-08T15:14:43.642Z,16.50
2022-12-08T15:17:30.749Z,18.30
2022-12-08T15:20:00.680Z,16.40
2022-12-08T15:22:31.433Z,14.20
2022-12-08T15:25:00.879Z,15.00
2022-12-08T15:27:29.420Z,14.90
2022-12-08T15:29:57.771Z,14.90
2022-12-08T15:32:26.058Z,14.50
2022-12-08T15:34:54.325Z,15.80
2022-12-08T15:37:25.026Z,14.70
2022-12-08T15:39:53.910Z,13.70
2022-12-08T15:42:22.234Z,13.30
2022-12-08T15:44:50.558Z,12.00
2022-12-08T15:47:21.392Z,13.30
2022-12-08T15:52:21.957Z,13.60
2022-12-08T15:54:50.915Z,14.60
2022-12-08T16:00:51.173Z,13.90
2022-12-08T16:04:13.804Z,13.80
2022-12-08T16:09:17.506Z,13.90
2022-12-08T16:12:07.881Z,13.60
2022-12-08T16:17:27.169Z,12.30
2022-12-08T16:19:55.723Z,15.20
2022-12-08T16:22:52.763Z,13.50
2022-12-08T16:25:19.436Z,13.40
2022-12-08T16:28:03.082Z,14.80
2022-12-08T16:30:37.271Z,14.70
2022-12-08T16:33:05.952Z,19.00
2022-12-08T16:35:34.476Z,18.00
2022-12-08T16:38:02.917Z,16.40
2022-12-08T16:40:31.288Z,16.60
2022-12-08T16:42:59.652Z,17.40
2022-12-08T16:45:30.162Z,16.60
2022-12-08T16:48:00.660Z,15.40
2022-12-08T16:50:32.278Z,13.40
2022-12-08T16:53:03.490Z,15.40
2022-12-08T16:55:33.989Z,16.10
2022-12-08T16:58:03.726Z,15.40
2022-12-08T17:00:37.337Z,13.30
2022-12-08T17:03:08.189Z,14.20
2022-12-08T17:05:36.633Z,14.20
2022-12-08T17:08:05.196Z,14.50
2022-12-08T17:10:35.807Z,15.40
2022-12-08T17:13:04.018Z,15.50
2022-12-08T17:15:32.274Z,14.20
2022-12-08T17:18:00.745Z,15.30
2022-12-08T17:20:29.249Z,14.90
2022-12-08T17:22:58.499Z,14.80
2022-12-08T17:25:27.284Z,15.30
2022-12-08T17:27:56.437Z,15.20
2022-12-08T17:30:24.751Z,15.40
2022-12-08T17:32:53.096Z,15.30
2022-12-08T17:35:21.723Z,12.60
2022-12-08T17:37:50.039Z,14.70
2022-12-08T17:40:18.404Z,14.30
2022-12-08T17:42:46.643Z,14.50
2022-12-08T17:45:14.888Z,13.20
2022-12-08T17:47:43.201Z,12.30
2022-12-08T17:50:11.487Z,12.20
2022-12-08T17:52:39.761Z,13.60
2022-12-08T17:55:08.346Z,13.50
2022-12-08T17:57:36.618Z,13.30
2022-12-08T18:00:06.136Z,12.90
2022-12-08T18:02:40.186Z,13.90
2022-12-08T18:05:08.857Z,13.40
2022-12-08T18:07:37.072Z,16.70
2022-12-08T18:10:06.218Z,22.00
2022-12-08T18:12:34.734Z,19.20
2022-12-08T18:15:05.166Z,20.80
2022-12-08T18:17:33.430Z,19.00
2022-12-08T18:20:01.804Z,20.50
2022-12-08T18:22:30.098Z,20.30
2022-12-08T18:24:58.319Z,19.80
2022-12-08T18:27:26.569Z,20.20
2022-12-08T18:29:54.943Z,18.90
2022-12-08T18:32:23.934Z,20.00
2022-12-08T18:34:52.416Z,17.50
2022-12-08T18:37:20.630Z,19.60
2022-12-08T18:39:49.158Z,18.00
2022-12-08T18:42:24.165Z,18.00
2022-12-08T18:44:56.469Z,18.40
2022-12-08T18:47:25.177Z,17.10
2022-12-08T18:49:53.546Z,19.20
2022-12-08T18:52:28.285Z,15.30
2022-12-08T18:55:07.818Z,18.70
2022-12-08T18:57:41.728Z,19.40
2022-12-08T19:00:13.891Z,20.10
2022-12-08T19:02:42.344Z,17.50
2022-12-08T19:05:14.911Z,18.30
2022-12-08T19:07:43.300Z,17.60
2022-12-08T19:10:12.241Z,16.80
2022-12-08T19:12:40.739Z,17.60
2022-12-08T19:15:09.639Z,17.00
2022-12-08T19:17:37.975Z,16.70
2022-12-08T19:20:07.214Z,15.20
2022-12-08T19:22:35.723Z,17.70
2022-12-08T19:25:05.116Z,18.60
2022-12-08T19:27:34.883Z,17.60
2022-12-08T19:30:04.038Z,17.40
2022-12-08T19:32:32.468Z,18.80
2022-12-08T19:35:01.062Z,19.10
2022-12-08T19:37:29.261Z,18.20
2022-12-08T19:40:15.835Z,19.00
2022-12-08T19:43:02.544Z,19.60
2022-12-08T19:45:30.837Z,18.40
2022-12-08T19:47:59.153Z,20.20
2022-12-08T19:50:36.641Z,19.60
2022-12-08T19:53:07.746Z,19.60
2022-12-08T19:55:36.857Z,21.60
2022-12-08T19:58:06.815Z,23.70
2022-12-08T20:00:37.364Z,22.00
2022-12-08T20:03:05.795Z,19.20
2022-12-08T20:05:36.697Z,19.70
2022-12-08T20:10:36.715Z,17.10
2022-12-08T20:13:24.331Z,17.80
2022-12-08T20:15:53.297Z,18.30
2022-12-08T20:18:21.863Z,23.80
2022-12-08T20:20:50.351Z,20.50
2022-12-08T20:23:18.631Z,21.50
2022-12-08T20:25:47.952Z,23.10
2022-12-08T20:28:16.541Z,20.00
2022-12-08T20:30:47.275Z,20.50
2022-12-08T20:33:17.883Z,18.70
2022-12-08T20:35:46.977Z,19.10
2022-12-08T20:38:15.606Z,19.10
2022-12-08T20:40:46.426Z,18.20
2022-12-08T20:43:14.795Z,19.90
2022-12-08T20:45:43.137Z,17.90
2022-12-08T20:48:11.881Z,17.70
2022-12-08T20:50:40.328Z,18.60
2022-12-08T20:53:09.237Z,17.20
2022-12-08T20:55:41.926Z,17.90
2022-12-08T20:58:10.556Z,18.50
2022-12-08T21:00:39.019Z,18.80
2022-12-08T21:03:07.600Z,18.10
2022-12-08T21:05:39.028Z,17.90
2022-12-08T21:08:07.553Z,18.50
2022-12-08T21:10:42.164Z,17.60
2022-12-08T21:13:12.220Z,17.20
2022-12-08T21:15:45.577Z,18.80
2022-12-08T21:18:15.659Z,18.90
2022-12-08T21:20:44.881Z,19.70
2022-12-08T21:23:13.320Z,20.30
2022-12-08T21:25:46.675Z,18.20
2022-12-08T21:28:15.681Z,20.60
2022-12-08T21:30:44.714Z,21.20
2022-12-08T21:33:13.327Z,23.40
2022-12-08T21:35:41.795Z,22.80
2022-12-08T21:38:10.274Z,23.40
2022-12-08T21:40:38.716Z,21.40
2022-12-08T21:43:06.967Z,20.40
2022-12-08T21:45:35.430Z,20.00
2022-12-08T21:48:10.864Z,20.30
2022-12-08T21:50:39.468Z,19.40
2022-12-08T21:53:07.787Z,20.00
2022-12-08T21:55:36.157Z,21.00
2022-12-08T21:58:04.708Z,19.90
2022-12-08T22:00:33.402Z,18.70
2022-12-08T22:03:01.914Z,18.60
2022-12-08T22:05:30.834Z,19.60
2022-12-08T22:07:59.681Z,20.30
2022-12-08T22:10:28.049Z,20.40
2022-12-08T22:12:56.532Z,19.00
2022-12-08T22:15:24.954Z,19.00
2022-12-08T22:17:53.374Z,18.20
2022-12-08T22:20:21.924Z,17.50
2022-12-08T22:22:50.378Z,21.20
2022-12-08T22:25:18.798Z,19.50
2022-12-08T22:27:47.085Z,18.90
2022-12-08T22:30:15.382Z,17.70
2022-12-08T22:32:43.769Z,19.00
2022-12-08T22:35:12.155Z,16.80
2022-12-08T22:37:40.447Z,14.80
2022-12-08T22:40:10.600Z,17.50
2022-12-08T22:42:39.203Z,16.00
2022-12-08T22:45:08.492Z,18.60
2022-12-08T22:47:37.347Z,20.20
2022-12-08T22:50:06.842Z,17.90
2022-12-08T22:52:35.532Z,20.70
2022-12-08T22:55:04.000Z,20.20
2022-12-08T22:57:32.244Z,19.80
2022-12-08T23:00:00.554Z,19.70
2022-12-08T23:02:28.915Z,19.30
2022-12-08T23:04:57.646Z,20.80
2022-12-08T23:07:26.135Z,19.80
2022-12-08T23:09:54.576Z,20.30
2022-12-08T23:12:22.835Z,20.20
2022-12-08T23:14:51.099Z,20.30
2022-12-08T23:17:19.551Z,19.10
2022-12-08T23:19:47.983Z,18.30
2022-12-08T23:22:16.419Z,17.40
2022-12-08T23:24:44.697Z,18.60
2022-12-08T23:27:13.255Z,19.40
2022-12-08T23:29:41.504Z,19.00
2022-12-08T23:32:09.891Z,18.40
2022-12-08T23:34:38.479Z,19.20
2022-12-08T23:37:06.724Z,18.00
2022-12-08T23:39:35.296Z,17.10
2022-12-08T23:42:04.115Z,18.80
2022-12-08T23:44:32.457Z,15.40
2022-12-08T23:47:01.113Z,13.80
2022-12-08T23:49:29.735Z,15.50
2022-12-08T23:51:57.984Z,13.90
2022-12-08T23:54:26.307Z,13.60
2022-12-08T23:56:54.692Z,13.00
2022-12-08T23:59:23.171Z,12.50
